PLVO2: Washita River nr Pauls Valley, OK

Data processed at Tue May 21 2019 22:30


All information presented herein is the property of the government of the United States of America and may be revised or deleted at any time without prior notice.
Dissemination of this information without the expressed written consent of the Public Affairs Office, Tulsa District U.S. Army Corps of Engineers is strictly prohibited.
These data are gathered electronically and, as presented, have not undergone any form of quality control. These data are not guaranteed to be valid or correct.
Go to home page.
Go to station list.
Go to home page.

Upstream stations:

Downstream station:
Previous Day
Next Day
Current Day
    
SHEF ID:       PLVO2     Washita River near Pauls Valley
STATION TYPE:  
Regulating: Stage =    29.00, Flow =    32360

               PRECIP     STAGE  RIV-FLOW  BAT-LOAD
                   in        ft       cfs      volt
              Ccp-Rev   Ccp-Rev   Ccp-Rev   Ccp-Rev
(US/Central)
05/21 00:00      0.00     10.67      4996     12.65
05/21 01:00      0.00     10.65      4974     12.65
05/21 02:00      0.00     10.63      4952     12.65
05/21 03:00      0.00     10.60      4919     12.57
05/21 04:00      0.00     10.57      4886     12.57
05/21 05:00      0.00     10.59      4908     12.57
05/21 06:00      0.00     10.63      4952     12.57
05/21 07:00      0.00     10.71      5040     12.57
05/21 08:00      0.00     10.77      5106     12.49
05/21 09:00      0.00     10.98      5341     12.65
05/21 10:00      0.00     11.23      5625     12.65
05/21 11:00      0.00     11.47      5902     12.81
05/21 12:00      0.00     11.79      6276     13.05
05/21 13:00      0.00     12.00      6524     13.05
05/21 14:00      0.00     12.20      6763     13.21
05/21 15:00      0.00     12.38      6980     13.05
05/21 16:00      0.00     12.57      7211     12.97
05/21 17:00      0.00     12.70      7370     12.97
05/21 18:00      0.00     12.86      7568     12.89
05/21 19:00      0.00     12.99      7729     12.89
05/21 20:00      0.00     13.17      7955     12.81
05/21 21:00      0.00     13.34      8169     12.73
05/21 22:00      ----      ----      ----      ----
05/21 23:00      ----      ----      ----      ----